Time;durP1;ratioP1;P1;durP2;ratioP2;P2;SDS_P1;SDS_P2;PMS_P1;PMS_P2;Temp;Humidity;BMP_temperature;BMP_pressure;BME280_temperature;BME280_humidity;BME280_pressure;Samples;Min_cycle;Max_cycle;Signal;HPM_P1;HPM_P2
2024/01/12 00:00:10;;;;;;;14.30;8.87;;;;;;;;;;6291754;28;20202;-62
2024/01/12 00:03:11;;;;;;;14.60;10.07;;;;;;;;;;6287201;28;20223;-62
2024/01/12 00:06:12;;;;;;;14.27;9.43;;;;;;;;;;6278964;28;20234;-62
2024/01/12 00:09:13;;;;;;;13.57;8.50;;;;;;;;;;6292915;28;20213;-62
2024/01/12 00:12:14;;;;;;;13.60;8.30;;;;;;;;;;6284217;28;20662;-62
2024/01/12 00:15:15;;;;;;;15.30;8.97;;;;;;;;;;6278143;28;20188;-62
2024/01/12 00:18:16;;;;;;;15.90;7.63;;;;;;;;;;6283816;28;20254;-62
2024/01/12 00:21:17;;;;;;;13.73;7.90;;;;;;;;;;6287259;28;20202;-62
2024/01/12 00:24:19;;;;;;;13.63;8.40;;;;;;;;;;6289415;28;20274;-62
2024/01/12 00:27:20;;;;;;;11.43;7.83;;;;;;;;;;6277689;28;20595;-62
2024/01/12 00:30:21;;;;;;;14.87;8.43;;;;;;;;;;6289565;28;20196;-62
2024/01/12 00:33:22;;;;;;;11.63;6.70;;;;;;;;;;6283957;28;20219;-62
2024/01/12 00:36:23;;;;;;;11.83;6.27;;;;;;;;;;6282892;28;20197;-61
2024/01/12 00:39:24;;;;;;;10.03;6.27;;;;;;;;;;6282502;28;20246;-62
2024/01/12 00:42:25;;;;;;;9.30;6.63;;;;;;;;;;6275772;28;20188;-62
2024/01/12 00:45:26;;;;;;;9.00;5.73;;;;;;;;;;6278031;28;20219;-62
2024/01/12 00:48:27;;;;;;;11.57;7.30;;;;;;;;;;6287918;28;20275;-61
2024/01/12 00:51:28;;;;;;;9.67;6.50;;;;;;;;;;6285170;28;20208;-62
2024/01/12 00:54:30;;;;;;;10.40;6.30;;;;;;;;;;6313445;28;20212;-62
2024/01/12 00:57:31;;;;;;;8.90;6.70;;;;;;;;;;6285803;28;20236;-62
2024/01/12 01:00:32;;;;;;;7.53;4.80;;;;;;;;;;6278624;28;20195;-62
2024/01/12 01:03:33;;;;;;;7.87;4.87;;;;;;;;;;6273246;28;20207;-62
2024/01/12 01:06:34;;;;;;;6.27;3.60;;;;;;;;;;6294720;28;20275;-62
2024/01/12 01:09:35;;;;;;;4.70;3.47;;;;;;;;;;6294134;28;20199;-62
2024/01/12 01:12:36;;;;;;;8.30;3.73;;;;;;;;;;6297414;28;20296;-62
2024/01/12 01:15:37;;;;;;;5.57;3.20;;;;;;;;;;6288946;28;20220;-61
2024/01/12 01:18:38;;;;;;;6.10;3.63;;;;;;;;;;6281199;28;20187;-62
2024/01/12 01:21:39;;;;;;;6.20;4.23;;;;;;;;;;6286868;28;20193;-61
2024/01/12 01:24:40;;;;;;;3.93;2.70;;;;;;;;;;6281070;28;20264;-62
2024/01/12 01:27:41;;;;;;;4.13;2.73;;;;;;;;;;6293942;28;20253;-62
2024/01/12 01:30:42;;;;;;;4.63;3.20;;;;;;;;;;6280434;28;20239;-61
2024/01/12 01:33:43;;;;;;;6.93;3.13;;;;;;;;;;6292710;28;20193;-62
2024/01/12 01:36:44;;;;;;;7.27;3.90;;;;;;;;;;6297790;28;20232;-62
2024/01/12 01:39:45;;;;;;;7.57;4.67;;;;;;;;;;6288346;28;20188;-62
2024/01/12 01:42:47;;;;;;;6.30;4.33;;;;;;;;;;6288209;28;20189;-62
2024/01/12 01:45:48;;;;;;;7.80;4.77;;;-0.30;70.80;;;;;;6287883;28;20196;-62
2024/01/12 01:48:49;;;;;;;9.10;4.80;;;-1.50;76.90;;;;;;6263461;28;20196;-62
2024/01/12 01:51:50;;;;;;;10.47;5.33;;;-1.60;77.20;;;;;;6263480;28;20214;-62
2024/01/12 01:54:56;;;;;;;10.63;7.63;;;-1.60;77.50;;;;;;6296374;28;20188;-62
2024/01/12 01:57:59;;;;;;;17.33;12.20;;;-1.50;77.60;;;;;;6283386;28;20224;-62
2024/01/12 02:01:01;;;;;;;17.17;11.50;;;-1.50;78.10;;;;;;6285990;28;20291;-62
2024/01/12 02:04:02;;;;;;;10.53;7.57;;;-1.50;78.30;;;;;;6296985;28;20202;-62
2024/01/12 02:07:03;;;;;;;10.43;6.30;;;-1.70;78.40;;;;;;6267952;28;20203;-62
2024/01/12 02:10:06;;;;;;;13.77;7.80;;;-1.70;78.30;;;;;;6303655;28;20191;-62
2024/01/12 02:13:06;;;;;;;11.50;7.40;;;-1.80;78.30;;;;;;6287524;28;20226;-62
2024/01/12 02:16:07;;;;;;;11.93;7.00;;;-1.80;78.50;;;;;;6264259;28;20204;-62
2024/01/12 02:19:08;;;;;;;14.03;8.17;;;-1.80;78.80;;;;;;6270263;28;20285;-61
2024/01/12 02:22:09;;;;;;;11.87;7.13;;;-1.80;78.80;;;;;;6270857;28;20201;-62
2024/01/12 02:25:09;;;;;;;10.87;7.47;;;-1.70;78.50;;;;;;6264884;28;20238;-62
2024/01/12 02:28:12;;;;;;;9.53;7.30;;;-1.80;78.40;;;;;;6267971;28;20229;-62
2024/01/12 02:31:13;;;;;;;10.50;6.97;;;-1.80;78.50;;;;;;6299504;28;20210;-62
2024/01/12 02:34:14;;;;;;;15.30;7.37;;;-1.80;78.50;;;;;;6254080;28;20278;-62
2024/01/12 02:37:15;;;;;;;10.57;7.13;;;-1.80;78.20;;;;;;6293748;28;20232;-62
2024/01/12 02:40:15;;;;;;;11.20;7.30;;;-1.90;78.70;;;;;;6261828;28;20196;-62
2024/01/12 02:43:16;;;;;;;12.43;7.63;;;-2.10;78.80;;;;;;6270434;28;20198;-61
2024/01/12 02:46:17;;;;;;;13.13;7.07;;;-2.10;79.10;;;;;;6283492;28;20196;-62
2024/01/12 02:49:18;;;;;;;12.03;7.10;;;-2.10;79.50;;;;;;6266688;28;20276;-62
2024/01/12 02:52:18;;;;;;;7.63;5.50;;;-2.10;79.60;;;;;;6286706;28;20209;-61
2024/01/12 02:55:19;;;;;;;10.53;6.97;;;-2.10;79.20;;;;;;6267803;28;20187;-61
2024/01/12 02:58:20;;;;;;;12.27;9.10;;;-2.10;79.30;;;;;;6275898;28;20288;-62
2024/01/12 03:01:20;;;;;;;11.40;8.27;;;-2.10;79.60;;;;;;6306907;28;20303;-62
2024/01/12 03:04:21;;;;;;;15.60;8.97;;;-2.10;79.10;;;;;;6261044;28;20199;-61
2024/01/12 03:07:22;;;;;;;16.07;9.03;;;-2.10;79.50;;;;;;6279673;28;20195;-62
2024/01/12 03:10:22;;;;;;;15.60;8.97;;;-2.10;79.80;;;;;;6280252;28;20194;-61
2024/01/12 03:13:23;;;;;;;15.07;8.27;;;-2.20;79.40;;;;;;6287923;28;20223;-62
2024/01/12 03:16:24;;;;;;;18.70;10.87;;;-2.20;79.70;;;;;;6269259;28;20205;-62
2024/01/12 03:19:25;;;;;;;18.63;11.30;;;-2.20;80.00;;;;;;6288162;28;20202;-62
2024/01/12 03:22:25;;;;;;;16.70;10.70;;;-2.30;79.80;;;;;;6279439;28;20194;-62
2024/01/12 03:25:26;;;;;;;22.23;12.13;;;-2.20;80.40;;;;;;6283667;28;20191;-61
2024/01/12 03:28:27;;;;;;;19.63;12.60;;;-2.20;79.90;;;;;;6287937;28;20195;-61
2024/01/12 03:31:27;;;;;;;21.40;13.43;;;-2.20;80.30;;;;;;6274003;28;20227;-62
2024/01/12 03:34:28;;;;;;;23.10;13.90;;;-2.20;80.20;;;;;;6280309;28;20189;-61
2024/01/12 03:37:29;;;;;;;27.67;14.90;;;-2.30;80.00;;;;;;6274844;28;20213;-62
2024/01/12 03:40:29;;;;;;;24.93;15.33;;;-2.30;80.40;;;;;;6304344;28;20206;-61
2024/01/12 03:43:30;;;;;;;25.47;15.77;;;-2.30;80.50;;;;;;6272021;28;20191;-61
2024/01/12 03:46:31;;;;;;;26.33;15.47;;;-2.30;80.60;;;;;;6293088;28;20185;-61
2024/01/12 03:49:31;;;;;;;23.80;14.13;;;-2.30;80.60;;;;;;6275012;28;20184;-61
2024/01/12 03:52:33;;;;;;;25.43;16.00;;;-2.40;81.10;;;;;;6287823;28;20300;-61
2024/01/12 03:55:34;;;;;;;26.87;15.53;;;-2.40;81.30;;;;;;6274088;28;20208;-61
2024/01/12 03:58:38;;;;;;;28.90;15.93;;;-2.40;81.40;;;;;;6266850;28;20223;-61
2024/01/12 04:01:45;;;;;;;26.40;16.83;;;-2.70;82.00;;;;;;6301023;28;20216;-61
2024/01/12 04:04:46;;;;;;;25.23;15.90;;;-2.60;82.60;;;;;;6300293;28;20268;-61
2024/01/12 04:07:48;;;;;;;23.73;15.37;;;-2.40;81.40;;;;;;6253209;28;20213;-61
2024/01/12 04:10:49;;;;;;;24.13;14.13;;;-2.50;81.20;;;;;;6275295;28;20190;-61
2024/01/12 04:13:49;;;;;;;22.37;12.60;;;-2.50;81.40;;;;;;6270577;28;20182;-61
2024/01/12 04:16:50;;;;;;;21.87;13.70;;;-2.50;81.00;;;;;;6266576;28;20185;-62
2024/01/12 04:19:51;;;;;;;25.90;14.57;;;-2.60;81.30;;;;;;6269238;28;20191;-61
2024/01/12 04:22:51;;;;;;;21.77;14.50;;;-2.60;81.10;;;;;;6288052;28;20187;-61
2024/01/12 04:25:52;;;;;;;19.03;13.53;;;-2.60;80.80;;;;;;6272627;28;20191;-61
2024/01/12 04:28:53;;;;;;;21.20;13.53;;;-2.60;81.20;;;;;;6270013;28;20203;-61
2024/01/12 04:31:53;;;;;;;22.63;13.80;;;-2.60;81.20;;;;;;6271797;28;20300;-61
2024/01/12 04:34:54;;;;;;;23.73;13.87;;;-2.60;81.00;;;;;;6278408;28;20214;-61
2024/01/12 04:37:55;;;;;;;26.93;14.97;;;-2.60;81.00;;;;;;6284484;28;20188;-61
2024/01/12 04:40:55;;;;;;;21.80;12.97;;;-2.50;81.20;;;;;;6278526;28;20197;-61
2024/01/12 04:43:56;;;;;;;21.47;11.93;;;-2.50;81.50;;;;;;6284731;28;20195;-61
2024/01/12 04:46:57;;;;;;;18.93;13.30;;;-2.60;81.60;;;;;;6266239;28;20221;-61
2024/01/12 04:49:57;;;;;;;24.00;14.53;;;-2.60;81.30;;;;;;6257382;28;20193;-61
2024/01/12 04:52:58;;;;;;;23.77;13.40;;;-2.60;82.10;;;;;;6281866;28;20266;-61
2024/01/12 04:55:59;;;;;;;24.20;14.10;;;-2.60;81.50;;;;;;6288869;28;20183;-61
2024/01/12 04:58:59;;;;;;;25.93;14.23;;;-2.60;81.50;;;;;;6268263;28;20236;-61
2024/01/12 05:02:00;;;;;;;19.53;13.50;;;-2.60;81.40;;;;;;6268706;28;20223;-61
2024/01/12 05:05:03;;;;;;;20.90;14.60;;;-2.60;81.40;;;;;;6287909;28;20214;-61
2024/01/12 05:08:04;;;;;;;26.20;13.90;;;-2.60;81.30;;;;;;6278789;28;20204;-61
2024/01/12 05:11:04;;;;;;;25.17;12.97;;;-2.60;81.20;;;;;;6264663;28;20197;-61
2024/01/12 05:14:06;;;;;;;21.43;13.83;;;-2.60;81.30;;;;;;6284404;28;20187;-62
2024/01/12 05:17:06;;;;;;;23.87;14.97;;;-2.60;81.00;;;;;;6278722;28;20191;-62
2024/01/12 05:20:08;;;;;;;23.70;14.53;;;-2.70;81.80;;;;;;6266665;28;20193;-62
2024/01/12 05:23:09;;;;;;;26.83;15.00;;;-2.70;82.60;;;;;;6272648;28;20208;-61
2024/01/12 05:26:12;;;;;;;23.97;14.37;;;-2.80;82.80;;;;;;6283445;28;20194;-63
2024/01/12 05:29:14;;;;;;;26.40;15.43;;;-2.70;82.40;;;;;;6288197;28;20231;-64
2024/01/12 05:32:15;;;;;;;28.50;15.57;;;-2.70;81.90;;;;;;6280993;28;20238;-62
2024/01/12 05:35:16;;;;;;;21.57;13.33;;;-2.70;81.60;;;;;;6261434;28;20190;-62
2024/01/12 05:38:16;;;;;;;23.20;13.67;;;-2.70;81.80;;;;;;6274693;28;20241;-62
2024/01/12 05:41:17;;;;;;;20.57;13.00;;;-2.60;81.60;;;;;;6269202;28;20193;-62
2024/01/12 05:44:18;;;;;;;25.67;13.30;;;-2.60;81.60;;;;;;6269901;28;20194;-62
2024/01/12 05:47:18;;;;;;;23.33;14.53;;;-2.60;81.30;;;;;;6264115;28;20284;-62
2024/01/12 05:50:19;;;;;;;21.37;13.67;;;-2.60;81.40;;;;;;6286102;28;20233;-61
2024/01/12 05:53:25;;;;;;;19.43;12.13;;;-2.70;81.50;;;;;;6276130;28;20304;-62
2024/01/12 05:56:26;;;;;;;16.33;10.57;;;-2.70;80.90;;;;;;6274922;28;20311;-62
2024/01/12 05:59:27;;;;;;;22.67;13.77;;;-2.70;80.90;;;;;;6271712;28;20234;-64
2024/01/12 06:02:28;;;;;;;17.20;11.40;;;-2.80;81.40;;;;;;6275822;28;20194;-64
2024/01/12 06:05:28;;;;;;;18.87;11.03;;;-2.80;81.60;;;;;;6272414;28;20201;-63
2024/01/12 06:08:29;;;;;;;16.23;11.17;;;-2.80;81.50;;;;;;6263915;28;20213;-66
2024/01/12 06:11:30;;;;;;;18.13;10.17;;;-2.80;81.20;;;;;;6272413;28;20217;-64
2024/01/12 06:14:30;;;;;;;18.50;11.80;;;-2.80;81.40;;;;;;6270029;28;20223;-61
2024/01/12 06:17:31;;;;;;;17.53;11.77;;;-2.80;81.00;;;;;;6271776;28;20193;-61
2024/01/12 06:20:31;;;;;;;16.73;10.40;;;-2.80;81.30;;;;;;6277215;28;20202;-61
2024/01/12 06:23:32;;;;;;;13.80;9.50;;;-2.80;81.10;;;;;;6295150;28;20193;-61
2024/01/12 06:26:33;;;;;;;17.87;11.13;;;-2.80;81.30;;;;;;6284936;28;20196;-62
2024/01/12 06:29:35;;;;;;;15.73;11.07;;;-2.90;81.50;;;;;;6289909;28;20200;-61
2024/01/12 06:32:39;;;;;;;18.43;11.13;;;-2.80;81.70;;;;;;6293508;28;20224;-62
2024/01/12 06:35:40;;;;;;;16.23;11.00;;;-2.80;81.50;;;;;;6265762;28;20191;-61
2024/01/12 06:38:41;;;;;;;21.30;11.00;;;-2.90;81.90;;;;;;6264174;28;20185;-61
2024/01/12 06:41:46;;;;;;;17.27;10.50;;;-2.80;81.40;;;;;;6282854;28;20194;-61
2024/01/12 06:44:47;;;;;;;15.30;10.73;;;-2.90;81.40;;;;;;6293798;28;20192;-62
2024/01/12 06:47:48;;;;;;;18.07;10.17;;;-2.90;81.50;;;;;;6277109;28;20189;-62
2024/01/12 06:50:48;;;;;;;16.03;9.30;;;-2.80;82.20;;;;;;6275229;28;20191;-62
2024/01/12 06:53:49;;;;;;;15.70;9.47;;;-2.80;82.00;;;;;;6272372;28;20203;-62
2024/01/12 06:56:52;;;;;;;15.47;9.07;;;-2.80;81.70;;;;;;6263292;28;20187;-62
2024/01/12 06:59:53;;;;;;;15.87;9.20;;;-2.80;82.00;;;;;;6283231;28;20277;-62
2024/01/12 07:02:54;;;;;;;13.03;8.73;;;-2.70;81.90;;;;;;6271095;28;20198;-62
2024/01/12 07:05:55;;;;;;;15.20;10.30;;;-2.80;82.20;;;;;;6265826;28;20190;-62
2024/01/12 07:08:56;;;;;;;12.10;8.37;;;-2.70;81.60;;;;;;6260781;28;20190;-62
2024/01/12 07:11:56;;;;;;;19.03;10.47;;;-2.70;81.80;;;;;;6257496;28;20214;-62
2024/01/12 07:14:57;;;;;;;15.50;10.00;;;-2.70;81.60;;;;;;6274939;28;20187;-62
2024/01/12 07:17:58;;;;;;;13.93;9.67;;;-2.60;81.50;;;;;;6263150;28;20180;-62
2024/01/12 07:21:03;;;;;;;15.40;10.10;;;-2.60;81.30;;;;;;6270314;28;20189;-62
2024/01/12 07:24:04;;;;;;;14.23;10.50;;;-2.50;81.20;;;;;;6268208;28;20191;-62
2024/01/12 07:27:05;;;;;;;14.20;8.93;;;-2.40;81.10;;;;;;6264227;28;20198;-62
2024/01/12 07:30:06;;;;;;;15.43;9.70;;;-2.40;80.70;;;;;;6282020;28;20195;-62
2024/01/12 07:33:07;;;;;;;15.37;9.43;;;-2.40;80.70;;;;;;6261188;28;20214;-62
2024/01/12 07:36:08;;;;;;;16.60;8.93;;;-2.30;80.70;;;;;;6273255;28;20226;-62
2024/01/12 07:39:09;;;;;;;10.50;7.87;;;-2.30;80.40;;;;;;6263993;28;20178;-62
2024/01/12 07:42:09;;;;;;;17.67;10.13;;;-2.30;80.50;;;;;;6268888;28;20277;-62
2024/01/12 07:45:13;;;;;;;16.20;10.23;;;-2.30;80.90;;;;;;6275157;28;20210;-62
2024/01/12 07:48:14;;;;;;;16.63;9.47;;;-2.30;80.40;;;;;;6276857;28;20260;-62
2024/01/12 07:51:15;;;;;;;18.07;10.73;;;-2.30;80.40;;;;;;6273415;28;20198;-62
2024/01/12 07:54:16;;;;;;;19.83;11.70;;;-2.30;80.30;;;;;;6288819;28;20281;-62
2024/01/12 07:57:17;;;;;;;16.03;11.43;;;-2.30;80.80;;;;;;6285517;28;20189;-62
2024/01/12 08:00:17;;;;;;;14.63;10.73;;;-2.30;81.00;;;;;;6272429;28;20281;-62
2024/01/12 08:03:18;;;;;;;17.87;10.43;;;-2.30;81.30;;;;;;6277586;28;20190;-62
2024/01/12 08:06:20;;;;;;;17.27;10.57;;;-2.20;81.40;;;;;;6275482;28;20187;-62
2024/01/12 08:09:20;;;;;;;15.43;9.90;;;-2.20;81.40;;;;;;6275625;28;20186;-62
2024/01/12 08:12:21;;;;;;;16.60;10.80;;;-2.20;81.50;;;;;;6272301;28;20221;-62
2024/01/12 08:15:22;;;;;;;17.60;10.80;;;-2.10;82.00;;;;;;6269682;28;20217;-62
2024/01/12 08:18:23;;;;;;;18.97;11.37;;;-2.20;82.40;;;;;;6251780;28;20205;-62
2024/01/12 08:21:23;;;;;;;16.93;11.17;;;-2.10;82.40;;;;;;6290286;28;20223;-62
2024/01/12 08:24:24;;;;;;;17.23;11.10;;;-2.10;82.00;;;;;;6260656;28;20240;-62
2024/01/12 08:27:25;;;;;;;13.63;10.40;;;-2.10;82.10;;;;;;6265311;28;20192;-62
2024/01/12 08:30:26;;;;;;;17.60;10.97;;;-2.00;82.20;;;;;;6256538;28;20196;-62
2024/01/12 08:33:26;;;;;;;15.70;10.67;;;-1.90;81.90;;;;;;6266431;28;20299;-62
2024/01/12 08:36:27;;;;;;;17.43;11.87;;;-1.90;81.80;;;;;;6267228;28;20286;-62
2024/01/12 08:39:29;;;;;;;18.43;12.47;;;-1.90;81.70;;;;;;6264189;28;20195;-62
2024/01/12 08:42:29;;;;;;;20.03;13.17;;;-1.80;81.90;;;;;;6258815;28;20195;-62
2024/01/12 08:45:30;;;;;;;17.73;12.73;;;-1.80;81.90;;;;;;6259717;28;20215;-62
2024/01/12 08:48:31;;;;;;;18.03;12.50;;;-1.70;82.20;;;;;;6265667;28;20189;-62
2024/01/12 08:51:32;;;;;;;22.27;13.53;;;-1.60;82.30;;;;;;6265738;28;20207;-62
2024/01/12 08:54:32;;;;;;;26.63;16.93;;;-1.60;82.30;;;;;;6273116;28;20202;-62
2024/01/12 08:57:35;;;;;;;28.43;19.97;;;-1.50;82.40;;;;;;6267517;28;20258;-62
2024/01/12 09:00:36;;;;;;;35.07;21.47;;;-1.40;81.80;;;;;;6305011;28;20214;-62
2024/01/12 09:03:37;;;;;;;32.27;21.53;;;-1.40;81.30;;;;;;6286548;28;20214;-62
2024/01/12 09:06:37;;;;;;;30.53;19.83;;;-1.40;81.60;;;;;;6283086;28;20282;-62
2024/01/12 09:09:38;;;;;;;26.33;18.33;;;-1.30;81.40;;;;;;6278451;28;20312;-62
2024/01/12 09:12:39;;;;;;;27.53;18.70;;;-1.30;81.20;;;;;;6268218;28;20242;-62
2024/01/12 09:15:39;;;;;;;39.07;24.93;;;-1.30;80.80;;;;;;6266795;28;20195;-62
2024/01/12 09:18:42;;;;;;;31.60;22.47;;;-1.10;81.00;;;;;;6288915;28;20203;-62
2024/01/12 09:21:43;;;;;;;29.30;19.57;;;-1.10;80.40;;;;;;6283391;28;20189;-62
2024/01/12 09:24:44;;;;;;;23.03;15.90;;;-1.00;80.20;;;;;;6256922;28;20207;-62
2024/01/12 09:27:44;;;;;;;15.43;11.90;;;-1.00;79.90;;;;;;6273860;28;20205;-62
2024/01/12 09:30:46;;;;;;;16.77;10.63;;;-0.80;79.20;;;;;;6265357;28;20203;-62
2024/01/12 09:33:47;;;;;;;16.63;11.67;;;-0.70;78.60;;;;;;6289052;28;20220;-62
2024/01/12 09:36:47;;;;;;;15.07;10.87;;;-0.60;78.60;;;;;;6282787;28;20195;-62
2024/01/12 09:39:48;;;;;;;18.73;11.70;;;-0.50;77.80;;;;;;6308741;28;20221;-62
2024/01/12 09:42:49;;;;;;;15.97;11.63;;;-0.40;76.20;;;;;;6268774;28;20230;-62
2024/01/12 09:45:51;;;;;;;17.93;12.03;;;-0.20;75.90;;;;;;6284446;28;20290;-62
2024/01/12 09:48:52;;;;;;;23.57;13.50;;;-0.10;76.00;;;;;;6261442;28;20199;-62
2024/01/12 09:51:52;;;;;;;19.60;13.23;;;-0.10;75.80;;;;;;6264988;28;20209;-62
2024/01/12 09:54:53;;;;;;;16.67;11.90;;;0.00;75.50;;;;;;6277280;28;20264;-62
2024/01/12 09:57:55;;;;;;;19.37;12.17;;;0.00;75.10;;;;;;6280889;28;20229;-62
2024/01/12 10:00:57;;;;;;;20.23;12.67;;;0.00;74.90;;;;;;6278174;28;20192;-62
2024/01/12 10:03:58;;;;;;;15.17;10.63;;;0.10;74.70;;;;;;6258601;28;20229;-62
2024/01/12 10:06:58;;;;;;;18.83;11.20;;;0.20;75.10;;;;;;6271513;28;20179;-62
2024/01/12 10:09:59;;;;;;;18.17;12.33;;;0.30;75.30;;;;;;6263373;28;20220;-62
2024/01/12 10:13:03;;;;;;;16.97;11.30;;;0.40;74.60;;;;;;6274028;28;20207;-62
2024/01/12 10:16:06;;;;;;;16.00;11.40;;;;;;;;;;6265732;28;20188;-62
2024/01/12 10:19:07;;;;;;;16.50;10.80;;;;;;;;;;6301334;28;20294;-62
2024/01/12 10:22:18;;;;;;;19.30;11.80;;;;;;;;;;6303162;28;20191;-62
2024/01/12 10:25:19;;;;;;;15.83;10.90;;;;;;;;;;6283812;28;20210;-62
2024/01/12 10:28:20;;;;;;;17.70;11.80;;;;;;;;;;6271033;28;20192;-62
2024/01/12 10:31:21;;;;;;;15.43;10.50;;;;;;;;;;6294080;28;20259;-62
2024/01/12 10:34:22;;;;;;;16.40;12.23;;;;;;;;;;6293653;28;20199;-62
2024/01/12 10:37:23;;;;;;;15.60;10.17;;;;;;;;;;6285218;28;20185;-62
2024/01/12 10:40:24;;;;;;;15.93;9.67;;;;;;;;;;6290900;28;20232;-61
2024/01/12 10:43:26;;;;;;;15.70;10.47;;;;;;;;;;6285495;28;20196;-62
2024/01/12 10:46:40;;;;;;;12.23;8.70;;;;;;;;;;6297979;28;20284;-62
2024/01/12 10:49:52;;;;;;;15.20;10.20;;;;;;;;;;6258749;28;20226;-62
2024/01/12 10:53:05;;;;;;;12.80;9.73;;;;;;;;;;6301662;28;20280;-62
2024/01/12 10:56:07;;;;;;;13.60;9.80;;;;;;;;;;6299634;28;20200;-62
2024/01/12 10:59:08;;;;;;;12.50;8.90;;;;;;;;;;6286214;28;20500;-62
2024/01/12 11:02:10;;;;;;;12.77;8.87;;;;;;;;;;6292406;28;20189;-62
2024/01/12 11:05:11;;;;;;;12.33;8.57;;;;;;;;;;6298664;28;20216;-62
2024/01/12 11:08:13;;;;;;;15.30;8.27;;;;;;;;;;6270651;28;20192;-62
2024/01/12 11:11:15;;;;;;;9.47;7.43;;;;;;;;;;6264185;28;20196;-62
2024/01/12 11:14:17;;;;;;;11.77;8.10;;;;;;;;;;6291203;28;20188;-61
2024/01/12 11:17:18;;;;;;;15.53;9.07;;;;;;;;;;6302489;28;20193;-62
2024/01/12 11:20:20;;;;;;;12.83;9.20;;;;;;;;;;6288737;28;20199;-61
2024/01/12 11:23:21;;;;;;;9.40;7.93;;;;;;;;;;6304553;28;20274;-62
2024/01/12 11:26:23;;;;;;;11.80;7.93;;;;;;;;;;6287701;28;20200;-62
2024/01/12 11:29:31;;;;;;;11.83;7.83;;;;;;;;;;6284873;28;20185;-62
2024/01/12 11:32:32;;;;;;;11.20;7.67;;;;;;;;;;6279838;28;20220;-62
2024/01/12 11:35:33;;;;;;;14.73;9.03;;;;;;;;;;6299655;28;20289;-61
2024/01/12 11:38:42;;;;;;;9.97;8.10;;;;;;;;;;6215914;28;21135;-61
2024/01/12 11:41:46;;;;;;;13.00;7.83;;;;;;;;;;6246697;28;20275;-61
2024/01/12 11:44:47;;;;;;;13.83;8.63;;;;;;;;;;6228070;28;20196;-61
2024/01/12 11:47:48;;;;;;;11.77;8.13;;;;;;;;;;6220514;28;20466;-62
2024/01/12 11:50:49;;;;;;;10.17;7.27;;;;;;;;;;6230180;28;20202;-62
2024/01/12 11:53:52;;;;;;;11.13;7.10;;;;;;;;;;6282422;28;20217;-62
2024/01/12 11:56:53;;;;;;;11.33;7.43;;;;;;;;;;6307382;28;20180;-62
2024/01/12 11:59:57;;;;;;;10.27;7.33;;;;;;;;;;6268173;28;20239;-62
2024/01/12 12:02:58;;;;;;;11.27;7.03;;;;;;;;;;6276925;28;20197;-62
2024/01/12 12:05:59;;;;;;;13.13;7.57;;;;;;;;;;6261514;28;20227;-62
2024/01/12 12:09:00;;;;;;;10.27;7.43;;;;;;;;;;6259718;28;20192;-62
2024/01/12 12:12:01;;;;;;;10.30;7.10;;;;;;;;;;6277291;28;20216;-62
2024/01/12 12:15:06;;;;;;;11.27;7.50;;;;;;;;;;6276899;28;20224;-62
2024/01/12 12:18:07;;;;;;;10.37;7.47;;;;;;;;;;6275013;28;20248;-62
2024/01/12 12:21:08;;;;;;;12.37;7.50;;;;;;;;;;6279804;28;20195;-62
2024/01/12 12:24:09;;;;;;;13.23;9.13;;;1.80;70.00;;;;;;6266300;28;20181;-64
2024/01/12 12:27:10;;;;;;;9.37;7.13;;;2.90;65.10;;;;;;6269005;28;20196;-63
2024/01/12 12:30:12;;;;;;;10.43;7.63;;;;;;;;;;6278254;28;20200;-63
2024/01/12 12:33:13;;;;;;;12.90;8.27;;;3.00;65.90;;;;;;6284553;28;20310;-62
2024/01/12 12:36:15;;;;;;;8.77;6.87;;;3.10;63.80;;;;;;6270511;28;20779;-63
2024/01/12 12:39:16;;;;;;;9.87;8.27;;;;;;;;;;6268862;28;20193;-62
2024/01/12 12:42:17;;;;;;;13.03;8.77;;;3.10;65.00;;;;;;6286614;28;20358;-65
2024/01/12 12:45:20;;;;;;;11.70;8.17;;;3.30;64.10;;;;;;6268321;28;20309;-62
2024/01/12 12:48:25;;;;;;;11.00;8.37;;;3.30;64.10;;;;;;6283470;28;20193;-62
2024/01/12 12:51:26;;;;;;;13.50;8.60;;;3.30;63.60;;;;;;6268666;28;20190;-62
2024/01/12 12:54:27;;;;;;;12.13;8.03;;;3.50;62.60;;;;;;6249940;28;20318;-62
2024/01/12 12:57:28;;;;;;;12.70;8.50;;;3.50;61.90;;;;;;6270102;28;20190;-62
2024/01/12 13:00:28;;;;;;;12.40;8.20;;;3.50;61.80;;;;;;6275763;28;20204;-62
2024/01/12 13:03:30;;;;;;;10.00;7.60;;;3.60;62.30;;;;;;6260081;28;20198;-62
2024/01/12 13:06:32;;;;;;;12.00;7.97;;;3.60;62.10;;;;;;6260086;28;20226;-62
2024/01/12 13:09:33;;;;;;;12.73;8.13;;;3.60;61.40;;;;;;6284953;28;20193;-62
2024/01/12 13:12:34;;;;;;;9.13;7.33;;;3.50;61.20;;;;;;6258857;28;20251;-62
2024/01/12 13:15:34;;;;;;;11.97;7.23;;;3.40;61.80;;;;;;6264613;28;20192;-62
2024/01/12 13:18:35;;;;;;;10.27;7.30;;;3.50;61.60;;;;;;6265246;28;20242;-62
2024/01/12 13:21:36;;;;;;;8.73;6.40;;;;;;;;;;6269315;28;20216;-63
2024/01/12 13:24:37;;;;;;;9.53;6.20;;;;;;;;;;6297350;28;20279;-62
2024/01/12 13:27:39;;;;;;;7.37;5.57;;;;;;;;;;6277909;28;20201;-62
2024/01/12 13:30:40;;;;;;;10.43;6.13;;;;;;;;;;6296488;28;20242;-62
2024/01/12 13:33:41;;;;;;;10.63;7.10;;;;;;;;;;6279664;28;20212;-62
2024/01/12 13:36:47;;;;;;;9.63;7.07;;;;;;;;;;6294701;28;20192;-62
2024/01/12 13:39:48;;;;;;;11.70;7.23;;;;;;;;;;6300679;28;20189;-62
2024/01/12 13:42:49;;;;;;;11.70;8.00;;;;;;;;;;6275411;28;20208;-62
2024/01/12 13:45:50;;;;;;;11.80;7.73;;;;;;;;;;6272650;28;20196;-62
2024/01/12 13:48:52;;;;;;;12.97;8.17;;;;;;;;;;6288880;28;20239;-63
2024/01/12 13:51:53;;;;;;;11.07;8.70;;;;;;;;;;6288243;28;20208;-62
2024/01/12 13:54:54;;;;;;;11.17;7.47;;;;;;;;;;6277505;28;20195;-63
2024/01/12 13:57:55;;;;;;;9.80;8.13;;;3.60;62.30;;;;;;6284207;28;20702;-62
2024/01/12 14:00:56;;;;;;;10.67;8.47;;;3.90;61.10;;;;;;6284286;28;20238;-62
2024/01/12 14:03:57;;;;;;;11.53;8.17;;;4.00;60.10;;;;;;6273638;28;20221;-62
2024/01/12 14:06:58;;;;;;;12.20;8.43;;;4.10;60.20;;;;;;6265654;28;20184;-62
2024/01/12 14:10:00;;;;;;;9.73;7.13;;;4.20;58.90;;;;;;6299270;28;20237;-60
2024/01/12 14:13:01;;;;;;;10.43;7.67;;;4.30;60.00;;;;;;6256226;28;20213;-59
2024/01/12 14:16:02;;;;;;;9.47;7.77;;;4.20;59.50;;;;;;6262375;28;20214;-59
2024/01/12 14:19:03;;;;;;;11.67;7.80;;;4.10;58.80;;;;;;6281474;28;20189;-59
2024/01/12 14:22:04;;;;;;;10.67;7.93;;;3.90;59.70;;;;;;6262791;28;20216;-59
2024/01/12 14:25:05;;;;;;;12.87;8.87;;;;;;;;;;6270116;28;20195;-60
2024/01/12 14:28:06;;;;;;;10.27;7.77;;;;;;;;;;6292041;28;20199;-59
2024/01/12 14:31:07;;;;;;;10.87;8.03;;;;;;;;;;6300059;28;20191;-60
2024/01/12 14:34:08;;;;;;;12.10;7.90;;;;;;;;;;6297706;28;20205;-60
2024/01/12 14:37:10;;;;;;;9.23;7.00;;;;;;;;;;6289110;28;20241;-60
2024/01/12 14:40:12;;;;;;;11.50;7.47;;;;;;;;;;6276644;28;20210;-60
2024/01/12 14:43:13;;;;;;;9.70;7.33;;;;;;;;;;6285376;28;20195;-60
2024/01/12 14:46:14;;;;;;;9.23;7.17;;;;;;;;;;6306116;28;20188;-59
2024/01/12 14:49:15;;;;;;;10.33;8.00;;;;;;;;;;6288969;28;20193;-59
2024/01/12 14:52:19;;;;;;;9.63;7.57;;;;;;;;;;6284157;28;20208;-59
2024/01/12 14:55:20;;;;;;;9.10;7.43;;;3.70;61.60;;;;;;6287692;28;20182;-62
2024/01/12 14:58:21;;;;;;;11.83;7.33;;;3.40;62.10;;;;;;6280624;28;20282;-60
2024/01/12 15:01:21;;;;;;;11.63;7.40;;;3.50;62.70;;;;;;6258217;28;20193;-60
2024/01/12 15:04:22;;;;;;;13.27;7.33;;;3.40;62.80;;;;;;6272849;28;20189;-60
2024/01/12 15:07:23;;;;;;;8.67;6.90;;;3.30;62.80;;;;;;6285581;28;20195;-61
2024/01/12 15:10:24;;;;;;;9.93;7.03;;;3.30;63.50;;;;;;6270471;28;20279;-61
2024/01/12 15:13:25;;;;;;;9.50;7.10;;;3.20;63.60;;;;;;6281221;28;20242;-60
2024/01/12 15:16:26;;;;;;;9.67;7.17;;;3.10;63.90;;;;;;6283173;28;20199;-60
2024/01/12 15:19:27;;;;;;;10.33;7.57;;;3.10;64.40;;;;;;6287882;28;20187;-60
2024/01/12 15:22:27;;;;;;;13.13;8.67;;;3.00;64.70;;;;;;6297349;28;20181;-60
2024/01/12 15:25:28;;;;;;;13.53;7.70;;;2.80;64.90;;;;;;6275201;28;20189;-60
2024/01/12 15:28:29;;;;;;;10.63;7.40;;;2.80;64.80;;;;;;6258044;28;20192;-60
2024/01/12 15:31:30;;;;;;;9.43;7.60;;;2.70;65.00;;;;;;6278689;28;20254;-60
2024/01/12 15:34:31;;;;;;;11.30;7.60;;;2.50;65.50;;;;;;6263723;28;20185;-60
2024/01/12 15:37:31;;;;;;;10.30;7.67;;;2.50;65.70;;;;;;6276081;28;20192;-59
2024/01/12 15:40:32;;;;;;;9.73;6.70;;;2.40;66.00;;;;;;6285026;28;20218;-59
2024/01/12 15:43:33;;;;;;;9.90;7.23;;;2.40;66.50;;;;;;6277487;28;20184;-60
2024/01/12 15:46:34;;;;;;;11.60;8.97;;;2.40;66.90;;;;;;6278426;28;20189;-60
2024/01/12 15:49:34;;;;;;;11.63;7.67;;;2.40;66.30;;;;;;6268406;28;20185;-60
2024/01/12 15:52:35;;;;;;;12.20;7.93;;;2.30;66.60;;;;;;6263703;28;20217;-60
2024/01/12 15:55:36;;;;;;;12.77;7.67;;;2.30;66.70;;;;;;6266445;28;20256;-59
2024/01/12 15:58:37;;;;;;;10.13;6.93;;;2.10;66.80;;;;;;6260846;28;20231;-59
2024/01/12 16:01:38;;;;;;;9.13;7.53;;;2.10;67.20;;;;;;6274920;28;20256;-60
2024/01/12 16:04:38;;;;;;;9.33;6.33;;;2.10;67.50;;;;;;6266903;28;20190;-62
2024/01/12 16:07:41;;;;;;;10.93;7.43;;;2.00;67.40;;;;;;6284678;28;20197;-62